KHBR

Details ICAO KHBR (HBR)
Name HOBART MUNI
Region United States
Timezone America/Chicago (UTC-5.0)
Plans Departing 1
Arriving 2
Stats Elevation 1,564 ft / 477 m (AMSL)
Location 34.991299° -99.051356°
Runways 3
Magnetic Variation 4.605° E
Sunrise 2018-05-24 11:28:17 UTC / 2018-05-24 06:28:17 Local
Sunset 2018-05-25 01:40:43 UTC / 2018-05-24 20:40:43 Local
Advertisement - Login to hide

Runways

ID Width Length Bearing (true) Bearing (mag) Surface Threshold Offset Overrun Length
03 150 ft / 46 m 5,295 ft / 1,614 m 45.08° 40.47° Asphalt 0 ft / 0 m 0 ft / 0 m
12 150 ft / 46 m 5,294 ft / 1,614 m 135.43° 130.82° Asphalt 0 ft / 0 m 0 ft / 0 m
17 100 ft / 30 m 5,522 ft / 1,683 m 180.23° 175.62° Asphalt 0 ft / 0 m 0 ft / 0 m
21 150 ft / 46 m 5,295 ft / 1,614 m 225.09° 220.48° Asphalt 0 ft / 0 m 0 ft / 0 m
30 150 ft / 46 m 5,294 ft / 1,614 m 315.44° 310.83° Asphalt 0 ft / 0 m 0 ft / 0 m
35 100 ft / 30 m 5,522 ft / 1,683 m 0.23° 355.62° Asphalt 0 ft / 0 m 0 ft / 0 m

Map

Weather


0- 5 10 15 20 25 30 35+ Temperature / ° C

Clouds and Precipitation
Forecast for 2018-05-24 12:00 UTC. Updated 5 hours ago

Ground ~20,000 ft ~40,000 ft Winds

METAR

KHBR 241553Z AUTO 19016KT 10SM CLR 27/20 A3006 RMK AO2 SLP159 T02670200 TSNO

TAF

Not found

Frequencies

Recorded 133.32 MHz ASOS
Approach 125.10 MHz ALTUS APP
Unicom 122.80 MHz CTAF/UNICOM
Departure 125.10 MHz ALTUS DEP
Warning: Do not use this data for real-world aviation or navigation. No guarantee of current accuracy is given.